Time;durP1;ratioP1;P1;durP2;ratioP2;P2;SDS_P1;SDS_P2;PMS_P1;PMS_P2;Temp;Humidity;BMP_temperature;BMP_pressure;BME280_temperature;BME280_humidity;BME280_pressure;Samples;Min_cycle;Max_cycle;Signal;HPM_P1;HPM_P2
2022/08/18 00:01:42;;;;;;;11.85;5.82;;;;;;;23.09;53.63;95025.97;5019821;28;20106;-84
2022/08/18 00:04:10;;;;;;;14.07;6.03;;;;;;;23.08;53.08;95019.78;5018413;28;20476;-84
2022/08/18 00:06:36;;;;;;;10.75;5.70;;;;;;;23.54;53.46;95109.22;5018527;28;20586;-83
2022/08/18 00:09:05;;;;;;;16.55;6.88;;;;;;;23.54;53.69;95114.66;5017795;28;20033;-85
2022/08/18 00:11:33;;;;;;;10.93;5.75;;;;;;;23.56;53.85;95115.06;5019134;28;20504;-84
2022/08/18 00:13:59;;;;;;;11.10;5.95;;;;;;;23.31;53.65;95079.38;5016799;28;20063;-84
2022/08/18 00:16:24;;;;;;;13.98;6.55;;;;;;;23.20;53.04;95059.41;5017154;28;20049;-84
2022/08/18 00:18:50;;;;;;;13.55;6.40;;;;;;;23.24;52.59;95060.28;5016402;28;20033;-84
2022/08/18 00:21:17;;;;;;;15.25;6.53;;;;;;;23.38;52.59;95109.28;5016876;28;20037;-84
2022/08/18 00:23:42;;;;;;;8.65;6.38;;;;;;;23.30;52.66;95091.31;5017456;28;20499;-83
2022/08/18 00:26:08;;;;;;;9.65;5.85;;;;;;;22.93;52.87;95033.38;5017280;28;20441;-85
2022/08/18 00:28:33;;;;;;;15.50;6.65;;;;;;;23.08;53.19;95079.28;5017398;28;20156;-84
2022/08/18 00:30:59;;;;;;;12.68;6.25;;;;;;;23.19;53.34;95084.16;5019114;28;20041;-84
2022/08/18 00:33:24;;;;;;;10.35;5.90;;;;;;;22.20;53.42;94970.00;5018315;28;20543;-84
2022/08/18 00:35:50;;;;;;;14.68;6.53;;;;;;;22.22;53.51;94929.13;5017109;28;20038;-84
2022/08/18 00:38:16;;;;;;;11.18;5.97;;;;;;;22.49;53.78;94992.25;5017501;28;20107;-84
2022/08/18 00:40:44;;;;;;;14.70;7.15;;;;;;;23.33;53.48;95104.16;5017646;28;20033;-84
2022/08/18 00:43:19;;;;;;;16.13;7.03;;;;;;;23.36;53.96;95108.06;5019459;28;20037;-84
2022/08/18 00:45:45;;;;;;;10.98;6.93;;;;;;;23.36;53.80;95113.47;5019378;28;20047;-84
2022/08/18 00:48:12;;;;;;;18.63;6.85;;;;;;;22.66;54.12;95013.44;5017292;28;20034;-84
2022/08/18 00:50:50;;;;;;;18.45;6.85;;;;;;;22.92;54.14;95065.03;5016925;28;20064;-84
2022/08/18 00:53:30;;;;;;;12.15;6.63;;;;;;;23.25;54.33;95120.59;5017306;28;20127;-84
2022/08/18 00:56:01;;;;;;;14.85;7.15;;;;;;;23.14;54.02;95112.25;5018838;28;20108;-84
2022/08/18 00:58:42;;;;;;;12.68;6.47;;;;;;;22.61;54.28;95033.44;5020774;28;20076;-84
2022/08/18 01:01:10;;;;;;;13.57;7.20;;;;;;;22.59;54.14;95021.41;5022884;28;20037;-84
2022/08/18 01:03:38;;;;;;;15.07;7.20;;;;;;;23.37;53.75;95129.34;5020441;28;20029;-84
2022/08/18 01:06:25;;;;;;;14.90;6.68;;;;;;;23.18;54.27;95113.13;5020068;28;20187;-84
2022/08/18 01:08:50;;;;;;;14.90;6.78;;;;;;;22.89;54.60;95067.66;5020030;28;20135;-84
2022/08/18 01:11:16;;;;;;;17.08;6.95;;;;;;;22.73;54.23;95046.06;5020165;28;20045;-84
2022/08/18 01:13:42;;;;;;;18.08;7.45;;;;;;;21.29;54.31;94822.88;5021665;28;20048;-85
2022/08/18 01:22:03;;;;;;;11.88;6.38;;;;;;;22.62;55.07;95085.59;5017812;28;20150;-84
2022/08/18 01:27:19;;;;;;;14.88;7.00;;;;;;;22.63;55.67;95081.75;5021667;28;20065;-84
2022/08/18 01:29:47;;;;;;;10.77;6.80;;;;;;;22.32;56.02;95050.94;5019785;28;20045;-84
2022/08/18 01:32:18;;;;;;;18.92;7.10;;;;;;;22.51;55.72;95068.34;5019728;28;20142;-84
2022/08/18 01:34:46;;;;;;;12.57;6.88;;;;;;;22.46;56.28;95084.81;5021674;28;20562;-84
2022/08/18 01:37:17;;;;;;;10.05;5.68;;;;;;;22.22;55.92;95026.38;5019953;28;20037;-85
2022/08/18 01:39:43;;;;;;;16.75;7.78;;;;;;;21.93;56.44;95024.88;5019848;28;20129;-84
2022/08/18 01:42:09;;;;;;;11.27;6.68;;;;;;;21.93;56.21;95008.69;5019183;28;20515;-85
2022/08/18 01:44:35;;;;;;;9.05;6.90;;;;;;;22.44;56.44;95092.50;5019168;28;20041;-85
2022/08/18 01:47:00;;;;;;;14.68;6.53;;;;;;;22.38;56.57;95083.88;5019519;28;20411;-84
2022/08/18 01:49:27;;;;;;;12.43;7.57;;;;;;;22.05;56.48;95040.25;5019000;28;20557;-85
2022/08/18 01:51:54;;;;;;;14.25;7.65;;;;;;;22.42;56.78;95081.28;5020508;28;20061;-83
2022/08/18 01:54:20;;;;;;;17.17;7.22;;;;;;;22.60;56.65;95112.16;5018895;28;20033;-84
2022/08/18 01:56:48;;;;;;;11.13;6.78;;;;;;;22.64;56.35;95108.44;5003607;28;20041;-83
2022/08/18 01:59:14;;;;;;;16.50;7.35;;;;;;;22.07;56.14;95014.44;5019778;28;20037;-85
2022/08/18 02:01:43;;;;;;;11.88;7.28;;;;;;;22.46;56.60;95080.19;5019124;28;20045;-84
2022/08/18 02:04:11;;;;;;;11.90;6.55;;;;;;;21.94;56.82;95008.34;5019484;28;20495;-84
2022/08/18 02:06:37;;;;;;;13.18;7.38;;;;;;;22.19;56.82;95048.69;5019275;28;20516;-84
2022/08/18 02:09:02;;;;;;;13.90;7.18;;;;;;;22.48;56.87;95079.84;5019395;28;20095;-84
2022/08/18 02:11:28;;;;;;;15.00;7.90;;;;;;;22.44;56.58;95117.59;5021930;28;20044;-84
2022/08/18 02:13:53;;;;;;;14.82;7.50;;;;;;;22.32;56.62;95087.97;5019629;28;20126;-84
2022/08/18 02:16:19;;;;;;;13.32;7.32;;;;;;;22.43;56.33;95121.41;5026226;28;20037;-84
2022/08/18 02:18:44;;;;;;;14.15;7.20;;;;;;;22.25;56.32;95083.19;5023394;28;20037;-84
2022/08/18 02:21:16;;;;;;;15.38;7.45;;;;;;;22.46;55.78;95114.53;5021657;28;20594;-84
2022/08/18 02:23:43;;;;;;;13.40;7.03;;;;;;;21.66;56.28;94999.56;5019769;28;20029;-84
2022/08/18 02:26:12;;;;;;;16.25;7.57;;;;;;;21.52;56.53;94983.78;5019352;28;20033;-84
2022/08/18 02:28:37;;;;;;;16.42;7.85;;;;;;;22.46;56.61;95119.94;5020936;28;20117;-84
2022/08/18 02:31:09;;;;;;;10.90;6.32;;;;;;;22.49;56.34;95117.34;5019245;28;20120;-84
2022/08/18 02:33:35;;;;;;;12.48;7.78;;;;;;;21.98;57.19;95054.34;5021406;28;20043;-84
2022/08/18 02:36:01;;;;;;;10.27;7.20;;;;;;;22.12;58.04;95107.94;5019485;28;20120;-84
2022/08/18 02:38:28;;;;;;;13.05;7.63;;;;;;;21.78;57.62;95056.16;5021040;28;20148;-84
2022/08/18 02:40:59;;;;;;;13.05;7.15;;;;;;;21.23;57.57;94959.91;5018946;28;20046;-84
2022/08/18 02:43:26;;;;;;;13.02;7.18;;;;;;;22.13;58.08;95104.09;5019409;28;20036;-84
2022/08/18 02:45:51;;;;;;;12.50;7.15;;;;;;;21.74;57.83;95038.31;5018839;28;20119;-84
2022/08/18 02:48:33;;;;;;;10.95;6.95;;;;;;;22.06;58.12;95099.28;5019333;28;20047;-84
2022/08/18 02:51:14;;;;;;;13.48;8.00;;;;;;;21.90;58.21;95091.16;5019197;28;20037;-84
2022/08/18 02:53:42;;;;;;;16.02;8.10;;;;;;;22.17;57.76;95116.56;5020451;28;20103;-84
2022/08/18 02:58:45;;;;;;;18.35;8.68;;;;;;;21.44;58.02;95011.69;5019938;28;20044;-84
2022/08/18 03:01:11;;;;;;;13.02;7.57;;;;;;;21.80;57.92;95066.59;5017866;28;20051;-84
2022/08/18 03:03:36;;;;;;;17.75;8.23;;;;;;;21.58;57.82;95026.72;5018090;28;20423;-84
2022/08/18 03:06:03;;;;;;;13.75;7.90;;;;;;;21.30;58.25;94991.66;5017923;28;20057;-84
2022/08/18 03:08:28;;;;;;;15.45;7.90;;;;;;;21.65;58.36;95049.25;5018071;28;20490;-84
2022/08/18 03:10:54;;;;;;;17.42;7.82;;;;;;;21.02;58.61;94980.88;5018360;28;20037;-84
2022/08/18 03:13:19;;;;;;;14.13;7.90;;;;;;;21.86;58.90;95108.41;5018762;28;20065;-84
2022/08/18 03:15:45;;;;;;;17.60;7.80;;;;;;;21.45;58.55;95047.56;5018401;28;20067;-84
2022/08/18 03:18:12;;;;;;;19.00;7.50;;;;;;;21.91;58.77;95108.94;5019640;28;20043;-84
2022/08/18 03:20:38;;;;;;;8.75;6.82;;;;;;;21.78;58.96;95093.16;5020507;28;20188;-84
2022/08/18 03:23:04;;;;;;;15.13;7.88;;;;;;;21.94;58.98;95123.66;5018663;28;20116;-84
2022/08/18 03:25:30;;;;;;;13.18;7.75;;;;;;;21.26;59.09;95045.53;5019755;28;20145;-84
2022/08/18 03:27:55;;;;;;;20.23;7.90;;;;;;;21.43;58.86;95055.22;5017720;28;20029;-85
2022/08/18 03:30:22;;;;;;;17.85;7.70;;;;;;;21.71;59.37;95119.97;5019527;28;20037;-84
2022/08/18 03:32:48;;;;;;;22.85;7.78;;;;;;;21.90;59.13;95134.34;5019767;28;20043;-84
2022/08/18 03:35:15;;;;;;;16.88;7.57;;;;;;;21.58;59.59;95105.75;5020521;28;20043;-84
2022/08/18 03:37:41;;;;;;;15.13;8.18;;;;;;;21.31;59.52;95066.84;5017631;28;20091;-84
2022/08/18 03:40:07;;;;;;;21.33;8.68;;;;;;;21.54;59.37;95088.66;5017618;28;20656;-84
2022/08/18 03:42:32;;;;;;;17.50;8.57;;;;;;;21.60;59.47;95116.19;5017713;28;20333;-84
2022/08/18 03:44:58;;;;;;;30.73;9.32;;;;;;;20.70;59.21;94966.50;5019655;28;20344;-84
2022/08/18 03:47:23;;;;;;;20.83;8.73;;;;;;;21.74;59.15;95117.34;5019451;28;20029;-84
2022/08/18 03:49:49;;;;;;;21.13;9.23;;;;;;;21.29;59.64;95063.69;5017091;28;20037;-84
2022/08/18 03:52:15;;;;;;;22.40;9.57;;;;;;;21.53;59.58;95105.97;5019035;28;20037;-84
2022/08/18 03:54:40;;;;;;;21.17;9.10;;;;;;;21.61;59.13;95102.34;5018028;28;20140;-84
2022/08/18 03:57:11;;;;;;;16.77;9.57;;;;;;;21.89;58.97;95140.13;5017340;28;20025;-84
2022/08/18 03:59:42;;;;;;;16.00;9.50;;;;;;;21.65;59.40;95145.63;5018258;28;20059;-84
2022/08/18 04:02:08;;;;;;;19.25;8.50;;;;;;;20.67;59.05;94970.66;5019013;28;20048;-84
2022/08/18 04:04:33;;;;;;;14.65;9.25;;;;;;;21.26;59.28;95069.81;5017307;28;20033;-84
2022/08/18 04:07:05;;;;;;;16.92;9.57;;;;;;;21.64;59.47;95134.06;5017990;28;20054;-84
2022/08/18 04:09:32;;;;;;;20.85;9.77;;;;;;;21.78;59.54;95150.63;5017409;28;20072;-84
2022/08/18 04:12:07;;;;;;;18.27;10.00;;;;;;;21.67;59.71;95140.66;5018751;28;20043;-84
2022/08/18 04:14:33;;;;;;;19.92;9.38;;;;;;;21.30;59.50;95080.66;5017661;28;20563;-84
2022/08/18 04:16:59;;;;;;;14.57;8.95;;;;;;;21.25;59.86;95083.63;5018162;28;20191;-84
2022/08/18 04:19:25;;;;;;;19.92;9.13;;;;;;;21.29;59.84;95106.06;5019466;28;20471;-84
2022/08/18 04:21:52;;;;;;;15.15;9.65;;;;;;;21.74;60.05;95154.38;5017150;28;20041;-84
2022/08/18 04:24:18;;;;;;;20.50;9.45;;;;;;;21.79;59.85;95163.00;5017168;28;20041;-84
2022/08/18 04:26:46;;;;;;;16.95;9.00;;;;;;;21.60;59.33;95119.66;5018803;28;20044;-84
2022/08/18 04:29:15;;;;;;;19.40;9.95;;;;;;;21.87;59.10;95161.28;5018456;28;20026;-84
2022/08/18 04:31:41;;;;;;;18.20;9.77;;;;;;;21.52;59.81;95161.06;5021236;28;20063;-84
2022/08/18 04:34:07;;;;;;;17.25;10.63;;;;;;;21.60;59.63;95167.44;5021531;28;20076;-84
2022/08/18 04:36:34;;;;;;;18.60;10.95;;;;;;;21.71;59.37;95176.63;5023082;28;20141;-84
2022/08/18 04:39:01;;;;;;;18.20;10.82;;;;;;;20.75;58.64;95004.78;5022510;28;20565;-84
2022/08/18 04:41:28;;;;;;;16.65;10.27;;;;;;;21.86;58.78;95165.88;5021026;28;20064;-84
2022/08/18 04:43:57;;;;;;;23.65;11.25;;;;;;;21.86;58.45;95163.19;5022570;28;20495;-84
2022/08/18 04:46:23;;;;;;;18.25;10.30;;;;;;;22.08;58.16;95169.97;5021705;28;20164;-84
2022/08/18 04:48:49;;;;;;;31.08;11.23;;;;;;;21.07;57.97;95019.16;5020436;28;20435;-84
2022/08/18 04:51:17;;;;;;;22.60;10.80;;;;;;;21.93;57.44;95149.09;5020577;28;20045;-84
2022/08/18 04:53:44;;;;;;;23.23;11.05;;;;;;;22.19;57.44;95175.66;5020565;28;20045;-84
2022/08/18 04:56:25;;;;;;;18.83;11.50;;;;;;;22.24;57.24;95176.16;5022304;28;20045;-84
2022/08/18 04:59:05;;;;;;;18.15;10.85;;;;;;;22.08;57.61;95163.78;5020392;28;20472;-84
2022/08/18 05:01:39;;;;;;;21.63;11.13;;;;;;;22.22;57.60;95181.13;5021881;28;20037;-84
2022/08/18 05:04:05;;;;;;;22.23;11.38;;;;;;;21.69;57.32;95104.09;5018955;28;20033;-84
2022/08/18 05:06:31;;;;;;;16.48;10.07;;;;;;;22.08;57.22;95185.38;5018262;28;20052;-84
2022/08/18 05:09:00;;;;;;;20.00;11.57;;;;;;;20.34;57.40;94902.78;5018713;28;20088;-84
2022/08/18 05:11:27;;;;;;;22.85;11.80;;;;;;;22.20;57.19;95186.09;5016511;28;20037;-84
2022/08/18 05:13:56;;;;;;;28.65;11.43;;;;;;;22.11;57.13;95153.06;5018136;28;20554;-84
2022/08/18 05:16:23;;;;;;;17.80;10.85;;;;;;;22.20;56.51;95156.38;5020185;28;20056;-85
2022/08/18 05:18:52;;;;;;;21.40;10.88;;;;;;;22.20;56.22;95159.06;5000320;28;20038;-83
2022/08/18 05:21:18;;;;;;;18.08;10.93;;;;;;;22.52;56.12;95192.28;5001112;28;20049;-84
2022/08/18 05:23:46;;;;;;;17.45;10.95;;;;;;;21.77;55.58;95089.66;5014906;28;20504;-84
2022/08/18 05:26:13;;;;;;;21.45;11.50;;;;;;;22.07;55.15;95111.69;5020150;28;20033;-84
2022/08/18 05:28:40;;;;;;;18.80;10.60;;;;;;;22.54;54.93;95170.34;5019832;28;20037;-84
2022/08/18 05:31:14;;;;;;;14.73;10.13;;;;;;;22.37;54.85;95157.94;5019764;28;20091;-84
2022/08/18 05:33:40;;;;;;;19.20;10.63;;;;;;;22.07;55.08;95095.47;5019527;28;20060;-84
2022/08/18 05:36:17;;;;;;;14.30;9.93;;;;;;;22.48;55.07;95144.72;5020463;28;20459;-84
2022/08/18 05:39:03;;;;;;;19.33;11.25;;;;;;;22.80;54.70;95200.34;5021847;28;20091;-84
2022/08/18 05:41:40;;;;;;;21.02;10.60;;;;;;;22.70;54.67;95204.34;5019528;28;20526;-83
2022/08/18 05:44:11;;;;;;;26.75;11.25;;;;;;;22.27;54.78;95117.97;5021069;28;20030;-84
2022/08/18 05:46:47;;;;;;;23.30;11.10;;;;;;;22.56;54.60;95141.84;5021771;28;20068;-84
2022/08/18 05:49:14;;;;;;;21.58;10.65;;;;;;;22.84;54.55;95200.44;5019198;28;20029;-84
2022/08/18 05:51:46;;;;;;;18.35;11.60;;;;;;;22.87;54.83;95203.22;5019865;28;20040;-84
2022/08/18 05:57:05;;;;;;;22.15;11.27;;;;;;;23.10;53.88;95200.66;5017471;28;20110;-84
2022/08/18 05:59:33;;;;;;;27.45;11.57;;;;;;;22.85;53.99;95180.38;5005275;28;20045;-84
2022/08/18 06:02:35;;;;;;;19.83;11.45;;;;;;;22.56;53.46;95116.72;5015111;28;20480;-84
2022/08/18 06:05:26;;;;;;;18.45;11.43;;;;;;;22.85;53.67;95153.34;5015284;28;20494;-84
2022/08/18 06:07:57;;;;;;;23.98;11.57;;;;;;;22.54;54.00;95111.66;5031698;28;20049;-84
2022/08/18 06:10:24;;;;;;;27.92;12.30;;;;;;;22.69;53.72;95137.09;5000790;28;20911;-84
2022/08/18 06:12:52;;;;;;;24.20;12.13;;;;;;;23.03;53.09;95160.72;5000800;28;20512;-84
2022/08/18 06:15:49;;;;;;;23.88;12.95;;;;;;;23.26;53.18;95197.94;4999131;28;20107;-84
2022/08/18 06:18:20;;;;;;;24.98;11.30;;;;;;;22.88;53.01;95117.50;5000943;28;20037;-84
2022/08/18 06:21:24;;;;;;;25.40;12.32;;;;;;;23.26;53.22;95197.94;4999182;28;20520;-84
2022/08/18 06:24:26;;;;;;;20.00;11.82;;;;;;;22.63;54.48;95171.72;4998433;28;20720;-84
2022/08/18 06:27:14;;;;;;;27.08;12.45;;;;;;;22.83;54.56;95196.16;4999015;28;20034;-84
2022/08/18 06:29:52;;;;;;;15.85;11.82;;;;;;;22.94;54.23;95186.38;5002171;28;20154;-84
2022/08/18 06:32:51;;;;;;;21.30;11.05;;;;;;;22.66;54.39;95159.41;5001467;28;20069;-84
2022/08/18 06:35:26;;;;;;;23.48;12.45;;;;;;;23.13;54.20;95196.44;4998588;28;20037;-83
2022/08/18 06:38:37;;;;;;;24.70;12.27;;;;;;;23.26;53.82;95195.22;5000128;28;20117;-84
2022/08/18 06:41:08;;;;;;;26.23;11.40;;;;;;;23.31;53.56;95200.34;5013689;28;20511;-84
2022/08/18 06:43:36;;;;;;;;;;;;;;;23.44;53.45;95196.38;5017979;28;20166;-84
2022/08/18 06:46:14;;;;;;;23.42;12.30;;;;;;;22.94;53.81;95126.88;5017133;28;19984;-84
2022/08/18 06:48:49;;;;;;;23.58;12.07;;;;;;;23.42;53.58;95195.97;5017126;28;20041;-83
2022/08/18 06:51:19;;;;;;;25.58;12.55;;;;;;;23.46;53.33;95188.69;5015889;28;20041;-84
2022/08/18 06:54:28;;;;;;;22.98;11.18;;;;;;;23.30;52.91;95123.78;4999115;28;20092;-84
2022/08/18 06:56:55;;;;;;;30.10;11.40;;;;;;;23.64;52.56;95170.16;5011844;28;20034;-84
2022/08/18 06:59:32;;;;;;;22.52;12.40;;;;;;;23.79;52.62;95186.31;5017328;28;20463;-84
2022/08/18 07:02:18;;;;;;;20.85;10.85;;;;;;;23.74;52.40;95154.09;5020170;28;20041;-84
2022/08/18 07:05:00;;;;;;;23.98;12.38;;;;;;;23.76;51.98;95140.97;5016916;28;20582;-84
2022/08/18 07:07:31;;;;;;;19.15;10.50;;;;;;;23.99;52.07;95170.03;5017700;28;20056;-84
2022/08/18 07:09:57;;;;;;;17.25;10.00;;;;;;;23.09;51.67;94999.72;5019320;28;20102;-84
2022/08/18 07:12:26;;;;;;;20.13;9.85;;;;;;;23.76;51.59;95086.03;5033260;28;20042;-84
2022/08/18 07:14:58;;;;;;;18.40;9.90;;;;;;;24.39;51.57;95162.28;5019910;28;20045;-84
2022/08/18 07:17:28;;;;;;;19.00;8.85;;;;;;;24.44;51.30;95161.97;5018590;28;20040;-84
2022/08/18 07:20:06;;;;;;;14.95;8.82;;;;;;;24.46;50.72;95167.81;5017138;28;20123;-84
2022/08/18 07:22:55;;;;;;;17.58;7.80;;;;;;;23.72;50.37;95064.34;5017802;28;20095;-84
2022/08/18 07:25:40;;;;;;;14.82;8.60;;;;;;;24.46;51.03;95148.06;4997903;28;20038;-84
2022/08/18 07:28:25;;;;;;;20.08;8.85;;;;;;;23.87;50.84;95057.25;5012823;28;20267;-84
2022/08/18 07:30:52;;;;;;;17.70;8.60;;;;;;;24.03;50.49;95089.63;4997470;28;20033;-84
2022/08/18 07:33:22;;;;;;;19.80;8.63;;;;;;;24.47;50.04;95130.66;5000826;28;20161;-84
2022/08/18 07:35:57;;;;;;;17.30;9.25;;;;;;;24.52;50.37;95136.53;4998492;28;20046;-84
2022/08/18 07:38:35;;;;;;;21.00;8.25;;;;;;;24.17;49.92;95065.47;4997369;28;20077;-84
2022/08/18 07:41:10;;;;;;;24.50;8.93;;;;;;;24.86;50.08;95159.16;4996022;28;20084;-84
2022/08/18 07:43:51;;;;;;;20.63;8.50;;;;;;;24.88;49.81;95137.09;5002946;28;20469;-85
2022/08/18 07:46:37;;;;;;;20.10;9.23;;;;;;;25.09;49.57;95150.22;4997296;28;20432;-84
2022/08/18 07:49:05;;;;;;;17.35;9.00;;;;;;;24.82;49.31;95095.94;4997818;28;20515;-84
2022/08/18 07:51:55;;;;;;;15.18;7.65;;;;;;;25.23;49.15;95153.13;4998868;28;20037;-84
2022/08/18 07:54:51;;;;;;;12.75;6.95;;;;;;;25.19;48.52;95160.41;4996928;28;20046;-84
2022/08/18 07:57:25;;;;;;;19.58;8.23;;;;;;;25.30;48.45;95148.56;4997158;28;20037;-84
2022/08/18 08:00:08;;;;;;;14.60;7.13;;;;;;;25.41;47.88;95147.91;5012213;28;20041;-85
2022/08/18 08:02:40;;;;;;;12.02;7.15;;;;;;;25.47;47.80;95149.97;5018311;28;20033;-85
2022/08/18 08:05:09;;;;;;;14.02;7.18;;;;;;;25.54;46.98;95144.63;5013427;28;20072;-85
2022/08/18 08:07:54;;;;;;;18.20;7.65;;;;;;;24.97;47.00;95056.25;5011784;28;20179;-85
2022/08/18 08:10:39;;;;;;;15.55;6.57;;;;;;;25.35;45.83;95095.88;4998110;28;20037;-85
2022/08/18 08:13:37;;;;;;;13.60;6.57;;;;;;;25.67;46.10;95150.59;4997756;28;20054;-85
2022/08/18 08:16:21;;;;;;;13.93;7.15;;;;;;;25.77;45.38;95144.53;4997444;28;20531;-85
2022/08/18 08:19:26;;;;;;;9.02;6.13;;;;;;;25.53;45.75;95091.47;4998919;28;20061;-85
2022/08/18 08:22:03;;;;;;;11.45;7.03;;;;;;;25.73;45.77;95120.03;5001972;28;20530;-85
2022/08/18 08:24:48;;;;;;;21.17;6.72;;;;;;;25.90;45.70;95126.81;5016926;28;20034;-85
2022/08/18 08:27:35;;;;;;;10.68;6.40;;;;;;;25.74;45.06;95082.78;5016843;28;20041;-85
2022/08/18 08:30:27;;;;;;;13.90;6.70;;;;;;;26.29;45.19;95137.31;5017554;28;20048;-85
2022/08/18 08:33:15;;;;;;;13.68;6.85;;;;;;;26.33;44.74;95138.91;5010349;28;20550;-85
2022/08/18 08:35:45;;;;;;;9.68;5.78;;;;;;;26.39;44.51;95133.94;5015069;28;20040;-85
2022/08/18 08:38:20;;;;;;;12.00;6.28;;;;;;;26.19;43.70;95089.81;5011049;28;20042;-85
2022/08/18 08:40:53;;;;;;;15.15;6.57;;;;;;;26.44;43.43;95112.59;5009666;28;20041;-85
2022/08/18 08:43:31;;;;;;;11.32;6.07;;;;;;;25.81;43.14;95001.38;5030034;28;20041;-85
2022/08/18 08:46:04;;;;;;;11.73;6.15;;;;;;;25.88;43.47;95009.56;5024365;28;20041;-85
2022/08/18 08:48:36;;;;;;;13.45;6.22;;;;;;;26.08;44.16;95019.09;5017125;28;20507;-85
2022/08/18 08:51:33;;;;;;;13.88;5.90;;;;;;;26.24;42.53;95009.88;5018601;28;20515;-85
2022/08/18 08:54:08;;;;;;;10.10;5.10;;;;;;;26.93;41.16;95127.75;5015001;28;20045;-85
2022/08/18 08:56:40;;;;;;;9.40;4.80;;;;;;;26.40;41.05;95030.22;5032836;28;20061;-84
2022/08/18 08:59:09;;;;;;;7.85;5.00;;;;;;;26.36;40.63;94998.72;5018935;28;20097;-87
2022/08/18 09:01:46;;;;;;;12.15;5.75;;;;;;;27.35;40.15;95129.16;5008178;28;20038;-85
2022/08/18 09:04:32;;;;;;;7.57;5.07;;;;;;;27.15;39.69;95088.63;4997049;28;20042;-84
2022/08/18 09:07:05;;;;;;;11.55;4.53;;;;;;;27.48;39.57;95144.00;4999587;28;20058;-84
2022/08/18 09:09:50;;;;;;;7.20;5.10;;;;;;;27.35;39.36;95112.81;5013843;28;20125;-84
2022/08/18 09:12:35;;;;;;;8.52;4.78;;;;;;;27.21;38.96;95073.47;5024808;28;20042;-84
2022/08/18 09:15:25;;;;;;;7.28;5.25;;;;;;;27.62;38.31;95112.19;5014371;28;20132;-85
2022/08/18 09:18:02;;;;;;;9.87;5.27;;;;;;;27.55;39.00;95098.53;5019538;28;20396;-85
2022/08/18 09:20:58;;;;;;;10.25;4.70;;;;;;;27.64;38.38;95118.03;5037040;28;20049;-84
2022/08/18 09:23:34;;;;;;;8.82;4.80;;;;;;;27.73;38.12;95114.16;5022998;28;20518;-84
2022/08/18 09:26:38;;;;;;;5.45;4.70;;;;;;;27.77;38.20;95101.34;5021428;28;20052;-84
2022/08/18 09:29:22;;;;;;;11.15;5.18;;;;;;;27.81;37.95;95105.63;5019969;28;20034;-84
2022/08/18 09:32:08;;;;;;;13.07;5.80;;;;;;;27.54;37.42;95058.09;5021183;28;20155;-84
2022/08/18 09:34:47;;;;;;;17.08;5.57;;;;;;;28.00;37.17;95099.03;5020777;28;20507;-84
2022/08/18 09:37:25;;;;;;;6.03;4.72;;;;;;;28.07;37.63;95092.84;5021939;28;20076;-85
2022/08/18 09:42:48;;;;;;;13.68;5.38;;;;;;;27.62;37.41;95014.09;5015815;28;20535;-85
2022/08/18 09:45:39;;;;;;;7.95;5.25;;;;;;;28.13;37.42;95083.91;5019040;28;20617;-85
2022/08/18 09:48:10;;;;;;;9.60;5.20;;;;;;;28.28;37.76;95095.63;5021505;28;20693;-85
2022/08/18 09:50:51;;;;;;;10.02;4.72;;;;;;;28.11;37.39;95069.09;5019114;28;20470;-85
2022/08/18 09:53:53;;;;;;;10.65;5.70;;;;;;;28.37;37.00;95090.56;5037136;28;20029;-85
2022/08/18 09:56:50;;;;;;;8.43;4.88;;;;;;;28.67;36.93;95081.97;5019248;28;20037;-85
2022/08/18 09:59:31;;;;;;;9.55;5.13;;;;;;;28.63;36.34;95076.50;5019227;28;20099;-85
2022/08/18 10:01:57;;;;;;;10.43;5.60;;;;;;;28.81;35.39;95035.59;5019895;28;20139;-85
2022/08/18 10:04:31;;;;;;;8.40;4.45;;;;;;;29.75;33.99;95076.59;5021450;28;20033;-86
2022/08/18 10:07:19;;;;;;;7.75;5.45;;;;;;;30.46;32.69;95031.59;5035835;28;20061;-85
2022/08/18 10:10:18;;;;;;;10.73;4.45;;;;;;;31.77;31.14;95066.63;5020157;28;20408;-85
2022/08/18 10:13:21;;;;;;;6.68;4.60;;;;;;;32.09;29.79;94947.44;4994225;28;20076;-85
2022/08/18 10:16:16;;;;;;;8.90;4.38;;;;;;;33.66;28.42;95051.25;5001106;28;20034;-85
2022/08/18 10:19:07;;;;;;;12.82;4.05;;;;;;;34.62;26.93;95051.84;4999526;28;20239;-85
2022/08/18 10:21:55;;;;;;;8.55;4.43;;;;;;;35.41;25.93;95053.34;4999077;28;20049;-85
2022/08/18 10:24:22;;;;;;;7.20;4.20;;;;;;;35.15;25.59;95052.47;4998050;28;20025;-85
2022/08/18 10:26:47;;;;;;;6.47;4.28;;;;;;;35.11;25.89;95046.25;5015201;28;20524;-85
2022/08/18 10:29:22;;;;;;;10.98;4.22;;;;;;;35.58;25.04;95050.09;4998303;28;20064;-85
2022/08/18 10:31:54;;;;;;;5.95;4.28;;;;;;;35.58;24.75;95041.03;5000189;28;20065;-85
2022/08/18 10:34:42;;;;;;;11.02;3.50;;;;;;;35.97;23.60;95043.44;5007362;28;20037;-85
2022/08/18 10:37:16;;;;;;;6.22;3.42;;;;;;;36.76;23.29;95036.22;5013595;28;20910;-85
2022/08/18 10:39:49;;;;;;;6.88;3.92;;;;;;;37.22;22.70;95042.16;5018020;28;20048;-85
2022/08/18 10:42:39;;;;;;;6.30;3.88;;;;;;;36.87;22.66;95033.84;5009639;28;20061;-85
2022/08/18 10:45:25;;;;;;;7.18;3.90;;;;;;;36.10;23.74;95035.16;4998230;28;20087;-85
2022/08/18 10:48:20;;;;;;;7.75;3.92;;;;;;;35.84;24.32;95034.38;5009668;28;20492;-85
2022/08/18 10:51:10;;;;;;;11.38;4.63;;;;;;;35.45;24.64;95020.94;5013330;28;20041;-85
2022/08/18 10:54:03;;;;;;;7.57;3.55;;;;;;;34.63;24.45;94945.22;5011433;28;20044;-85
2022/08/18 10:56:40;;;;;;;9.00;3.75;;;;;;;34.43;24.17;94973.66;5031517;28;20120;-85
2022/08/18 10:59:51;;;;;;;6.55;3.83;;;;;;;34.30;24.35;95005.06;5033848;28;20192;-85
2022/08/18 11:02:37;;;;;;;5.45;3.47;;;;;;;35.14;23.45;95024.13;5017566;28;20107;-85
2022/08/18 11:05:08;;;;;;;5.32;3.03;;;;;;;35.35;22.78;95016.50;5016970;28;20037;-85
2022/08/18 11:07:34;;;;;;;4.55;3.03;;;;;;;35.49;22.39;94961.72;5016535;28;20425;-84
2022/08/18 11:10:16;;;;;;;5.13;3.80;;;;;;;36.37;23.50;95012.63;5020180;28;20107;-83
2022/08/18 11:13:10;;;;;;;7.97;3.60;;;;;;;35.40;22.77;95008.44;5018939;28;20517;-85
2022/08/18 11:16:05;;;;;;;5.63;3.50;;;;;;;35.16;23.34;95004.41;5018200;28;20127;-84
2022/08/18 11:18:39;;;;;;;5.45;3.63;;;;;;;35.87;22.67;95002.34;5019447;28;20029;-85
2022/08/18 11:21:41;;;;;;;4.45;3.47;;;;;;;36.70;22.11;94997.31;5018529;28;20069;-85
2022/08/18 11:24:22;;;;;;;5.97;3.45;;;;;;;36.90;21.62;94993.50;5004886;28;20085;-85
2022/08/18 11:26:52;;;;;;;7.28;3.65;;;;;;;36.54;21.47;94911.09;5012284;28;20041;-85
2022/08/18 11:29:29;;;;;;;10.93;3.60;;;;;;;36.91;21.64;95012.41;5016981;28;20136;-85
2022/08/18 11:32:06;;;;;;;6.35;4.15;;;;;;;37.21;21.62;94977.81;5020364;28;20061;-85
2022/08/18 11:34:45;;;;;;;7.15;4.03;;;;;;;38.01;21.26;95002.81;5017812;28;20081;-85
2022/08/18 11:38:08;;;;;;;6.22;3.97;;;;;;;38.44;20.66;95006.69;5017375;28;20128;-85
2022/08/18 11:40:46;;;;;;;5.22;3.60;;;;;;;37.75;20.95;94980.13;4978611;28;20050;-85
2022/08/18 11:43:26;;;;;;;5.95;3.30;;;;;;;37.89;20.68;95000.19;4979647;28;20171;-86
2022/08/18 11:46:08;;;;;;;4.20;3.15;;;;;;;37.59;21.35;94987.88;5004836;28;20084;-86
2022/08/18 11:48:34;;;;;;;9.68;3.85;;;;;;;37.28;21.40;94998.88;5016931;28;20601;-85
2022/08/18 11:51:07;;;;;;;7.30;3.67;;;;;;;36.97;21.29;94927.69;5017704;28;20132;-85
2022/08/18 11:53:49;;;;;;;8.00;3.17;;;;;;;36.88;21.45;94946.19;5018926;28;20516;-84
2022/08/18 11:56:20;;;;;;;8.43;3.45;;;;;;;36.53;22.01;94997.91;5016831;28;20040;-85
2022/08/18 11:59:01;;;;;;;10.77;3.47;;;;;;;36.44;22.33;94973.75;5013510;28;20540;-85
2022/08/18 12:01:30;;;;;;;6.13;3.75;;;;;;;36.50;22.20;94993.28;5019426;28;20297;-84
2022/08/18 12:04:05;;;;;;;5.60;3.63;;;;;;;35.97;21.83;94907.44;5017197;28;20045;-84
2022/08/18 12:06:31;;;;;;;7.85;3.38;;;;;;;36.87;21.77;94983.34;5017214;28;20570;-85
2022/08/18 12:09:19;;;;;;;8.40;3.60;;;;;;;36.35;21.54;94874.25;5018608;28;20113;-85
2022/08/18 12:11:52;;;;;;;10.32;3.83;;;;;;;36.66;21.50;94926.84;5018109;28;20626;-85
2022/08/18 12:14:22;;;;;;;9.35;3.58;;;;;;;36.85;21.24;94963.69;5016738;28;20042;-85
2022/08/18 12:16:48;;;;;;;8.40;4.03;;;;;;;36.77;21.42;94967.94;5015993;28;20030;-85
2022/08/18 12:19:15;;;;;;;6.28;3.60;;;;;;;36.02;22.61;94901.34;5015784;28;20481;-84